sensor_id;sensor_type;location;lat;lon;timestamp;pressure;altitude;pressure_sealevel;temperature;humidity
43119;BME280;28729;49.838;8.650;2024-01-30T00:02:31;101133.72;;;5.40;100.00
43119;BME280;28729;49.838;8.650;2024-01-30T00:06:34;101131.19;;;5.39;100.00
43119;BME280;28729;49.838;8.650;2024-01-30T00:10:35;101129.28;;;5.39;100.00
43119;BME280;28729;49.838;8.650;2024-01-30T00:14:43;101130.31;;;5.38;100.00
43119;BME280;28729;49.838;8.650;2024-01-30T00:18:47;101132.75;;;5.33;100.00
43119;BME280;28729;49.838;8.650;2024-01-30T00:22:49;101133.50;;;5.27;100.00
43119;BME280;28729;49.838;8.650;2024-01-30T00:26:51;101135.06;;;5.21;100.00
43119;BME280;28729;49.838;8.650;2024-01-30T00:30:53;101140.22;;;5.16;100.00
43119;BME280;28729;49.838;8.650;2024-01-30T00:34:58;101145.75;;;5.08;100.00
43119;BME280;28729;49.838;8.650;2024-01-30T00:39:00;101143.44;;;4.97;100.00
43119;BME280;28729;49.838;8.650;2024-01-30T00:43:02;101141.25;;;4.92;100.00
43119;BME280;28729;49.838;8.650;2024-01-30T00:47:05;101140.09;;;4.87;100.00
43119;BME280;28729;49.838;8.650;2024-01-30T00:51:07;101148.31;;;4.78;100.00
43119;BME280;28729;49.838;8.650;2024-01-30T00:55:09;101141.03;;;4.71;100.00
43119;BME280;28729;49.838;8.650;2024-01-30T00:59:11;101135.44;;;4.64;100.00
43119;BME280;28729;49.838;8.650;2024-01-30T01:03:13;101134.09;;;4.60;100.00
43119;BME280;28729;49.838;8.650;2024-01-30T01:07:17;101143.47;;;4.57;100.00
43119;BME280;28729;49.838;8.650;2024-01-30T01:11:18;101143.84;;;4.54;100.00
43119;BME280;28729;49.838;8.650;2024-01-30T01:15:20;101139.94;;;4.49;100.00
43119;BME280;28729;49.838;8.650;2024-01-30T01:19:22;101138.09;;;4.41;100.00
43119;BME280;28729;49.838;8.650;2024-01-30T01:23:24;101148.00;;;4.34;100.00
43119;BME280;28729;49.838;8.650;2024-01-30T01:27:27;101143.63;;;4.25;100.00
43119;BME280;28729;49.838;8.650;2024-01-30T01:31:28;101148.41;;;4.23;100.00
43119;BME280;28729;49.838;8.650;2024-01-30T01:35:31;101146.88;;;4.20;100.00
43119;BME280;28729;49.838;8.650;2024-01-30T01:39:33;101141.94;;;4.16;100.00
43119;BME280;28729;49.838;8.650;2024-01-30T01:43:35;101140.75;;;4.10;100.00
43119;BME280;28729;49.838;8.650;2024-01-30T01:47:37;101136.19;;;4.02;100.00
43119;BME280;28729;49.838;8.650;2024-01-30T01:51:39;101133.31;;;3.96;100.00
43119;BME280;28729;49.838;8.650;2024-01-30T01:55:45;101129.41;;;3.90;100.00
43119;BME280;28729;49.838;8.650;2024-01-30T01:59:49;101130.97;;;3.84;100.00
43119;BME280;28729;49.838;8.650;2024-01-30T02:03:52;101127.75;;;3.81;100.00
43119;BME280;28729;49.838;8.650;2024-01-30T02:07:55;101120.41;;;3.81;100.00
43119;BME280;28729;49.838;8.650;2024-01-30T02:11:57;101123.78;;;3.83;100.00
43119;BME280;28729;49.838;8.650;2024-01-30T02:15:59;101131.13;;;3.83;100.00
43119;BME280;28729;49.838;8.650;2024-01-30T02:20:02;101130.13;;;3.84;100.00
43119;BME280;28729;49.838;8.650;2024-01-30T02:24:05;101131.66;;;3.78;100.00
43119;BME280;28729;49.838;8.650;2024-01-30T02:28:07;101127.75;;;3.73;100.00
43119;BME280;28729;49.838;8.650;2024-01-30T02:32:10;101129.78;;;3.71;100.00
43119;BME280;28729;49.838;8.650;2024-01-30T02:36:12;101123.13;;;3.65;100.00
43119;BME280;28729;49.838;8.650;2024-01-30T02:40:15;101132.84;;;3.59;100.00
43119;BME280;28729;49.838;8.650;2024-01-30T02:44:17;101124.38;;;3.54;100.00
43119;BME280;28729;49.838;8.650;2024-01-30T02:48:19;101127.59;;;3.50;100.00
43119;BME280;28729;49.838;8.650;2024-01-30T02:52:21;101123.69;;;3.44;100.00
43119;BME280;28729;49.838;8.650;2024-01-30T02:56:23;101124.88;;;3.41;100.00
43119;BME280;28729;49.838;8.650;2024-01-30T03:00:25;101122.13;;;3.41;100.00
43119;BME280;28729;49.838;8.650;2024-01-30T03:04:28;101123.31;;;3.39;100.00
43119;BME280;28729;49.838;8.650;2024-01-30T03:08:31;101120.09;;;3.35;100.00
43119;BME280;28729;49.838;8.650;2024-01-30T03:12:33;101118.06;;;3.29;100.00
43119;BME280;28729;49.838;8.650;2024-01-30T03:16:35;101122.66;;;3.29;100.00
43119;BME280;28729;49.838;8.650;2024-01-30T03:20:38;101123.00;;;3.26;100.00
43119;BME280;28729;49.838;8.650;2024-01-30T03:24:40;101120.97;;;3.19;100.00
43119;BME280;28729;49.838;8.650;2024-01-30T03:28:42;101114.16;;;3.15;100.00
43119;BME280;28729;49.838;8.650;2024-01-30T03:32:43;101113.63;;;3.12;100.00
43119;BME280;28729;49.838;8.650;2024-01-30T03:36:45;101108.69;;;3.07;100.00
43119;BME280;28729;49.838;8.650;2024-01-30T03:40:47;101106.31;;;3.04;100.00
43119;BME280;28729;49.838;8.650;2024-01-30T03:44:49;101109.38;;;3.01;100.00
43119;BME280;28729;49.838;8.650;2024-01-30T03:48:55;101121.13;;;3.02;100.00
43119;BME280;28729;49.838;8.650;2024-01-30T03:52:58;101117.56;;;3.01;100.00
43119;BME280;28729;49.838;8.650;2024-01-30T03:57:00;101110.56;;;2.99;100.00
43119;BME280;28729;49.838;8.650;2024-01-30T04:01:02;101107.34;;;2.95;100.00
43119;BME280;28729;49.838;8.650;2024-01-30T04:05:05;101112.94;;;2.93;100.00
43119;BME280;28729;49.838;8.650;2024-01-30T04:09:08;101111.41;;;2.91;100.00
43119;BME280;28729;49.838;8.650;2024-01-30T04:13:10;101108.84;;;2.89;100.00
43119;BME280;28729;49.838;8.650;2024-01-30T04:17:13;101102.91;;;2.86;100.00
43119;BME280;28729;49.838;8.650;2024-01-30T04:21:15;101111.75;;;2.80;100.00
43119;BME280;28729;49.838;8.650;2024-01-30T04:25:16;101115.78;;;2.76;100.00
43119;BME280;28729;49.838;8.650;2024-01-30T04:29:18;101111.38;;;2.74;100.00
43119;BME280;28729;49.838;8.650;2024-01-30T04:33:22;101112.22;;;2.75;100.00
43119;BME280;28729;49.838;8.650;2024-01-30T04:37:24;101107.63;;;2.76;100.00
43119;BME280;28729;49.838;8.650;2024-01-30T04:41:29;101100.31;;;2.76;100.00
43119;BME280;28729;49.838;8.650;2024-01-30T04:45:33;101109.16;;;2.78;100.00
43119;BME280;28729;49.838;8.650;2024-01-30T04:49:35;101110.19;;;2.77;100.00
43119;BME280;28729;49.838;8.650;2024-01-30T04:53:37;101119.03;;;2.79;100.00
43119;BME280;28729;49.838;8.650;2024-01-30T04:57:41;101116.16;;;2.81;100.00
43119;BME280;28729;49.838;8.650;2024-01-30T05:01:43;101119.91;;;2.80;100.00
43119;BME280;28729;49.838;8.650;2024-01-30T05:05:45;101123.63;;;2.79;100.00
43119;BME280;28729;49.838;8.650;2024-01-30T05:09:47;101129.59;;;2.82;100.00
43119;BME280;28729;49.838;8.650;2024-01-30T05:13:48;101126.53;;;2.85;100.00
43119;BME280;28729;49.838;8.650;2024-01-30T05:17:51;101130.78;;;2.80;100.00
43119;BME280;28729;49.838;8.650;2024-01-30T05:21:53;101123.28;;;2.82;100.00
43119;BME280;28729;49.838;8.650;2024-01-30T05:25:56;101134.03;;;2.83;100.00
43119;BME280;28729;49.838;8.650;2024-01-30T05:29:59;101125.00;;;2.83;100.00
43119;BME280;28729;49.838;8.650;2024-01-30T05:34:04;101127.75;;;2.83;100.00
43119;BME280;28729;49.838;8.650;2024-01-30T05:38:08;101131.78;;;2.79;100.00
43119;BME280;28729;49.838;8.650;2024-01-30T05:42:10;101130.09;;;2.78;100.00
43119;BME280;28729;49.838;8.650;2024-01-30T05:46:12;101130.59;;;2.81;100.00
43119;BME280;28729;49.838;8.650;2024-01-30T05:50:14;101126.84;;;2.82;100.00
43119;BME280;28729;49.838;8.650;2024-01-30T05:54:18;101124.00;;;2.84;100.00
43119;BME280;28729;49.838;8.650;2024-01-30T05:58:20;101132.31;;;2.82;100.00
43119;BME280;28729;49.838;8.650;2024-01-30T06:02:25;101127.56;;;2.84;100.00
43119;BME280;28729;49.838;8.650;2024-01-30T06:06:27;101134.69;;;2.85;100.00
43119;BME280;28729;49.838;8.650;2024-01-30T06:10:30;101133.84;;;2.85;100.00
43119;BME280;28729;49.838;8.650;2024-01-30T06:14:32;101139.13;;;2.86;100.00
43119;BME280;28729;49.838;8.650;2024-01-30T06:18:38;101128.25;;;2.86;100.00
43119;BME280;28729;49.838;8.650;2024-01-30T06:22:43;101121.78;;;2.87;100.00
43119;BME280;28729;49.838;8.650;2024-01-30T06:26:46;101126.88;;;2.90;100.00
43119;BME280;28729;49.838;8.650;2024-01-30T06:30:54;101135.56;;;2.94;100.00
43119;BME280;28729;49.838;8.650;2024-01-30T06:35:00;101127.75;;;2.99;100.00
43119;BME280;28729;49.838;8.650;2024-01-30T06:39:04;101125.38;;;3.04;100.00
43119;BME280;28729;49.838;8.650;2024-01-30T06:43:06;101116.88;;;3.07;100.00
43119;BME280;28729;49.838;8.650;2024-01-30T06:47:09;101125.91;;;3.16;100.00
43119;BME280;28729;49.838;8.650;2024-01-30T06:51:13;101125.88;;;3.24;100.00
43119;BME280;28729;49.838;8.650;2024-01-30T06:55:18;101131.69;;;3.29;100.00
43119;BME280;28729;49.838;8.650;2024-01-30T06:59:20;101138.31;;;3.35;100.00
43119;BME280;28729;49.838;8.650;2024-01-30T07:03:22;101142.94;;;3.42;100.00
43119;BME280;28729;49.838;8.650;2024-01-30T07:07:25;101141.75;;;3.45;100.00
43119;BME280;28729;49.838;8.650;2024-01-30T07:11:28;101138.50;;;3.50;100.00
43119;BME280;28729;49.838;8.650;2024-01-30T07:15:30;101143.59;;;3.53;100.00
43119;BME280;28729;49.838;8.650;2024-01-30T07:19:32;101148.72;;;3.56;100.00
43119;BME280;28729;49.838;8.650;2024-01-30T07:23:34;101145.81;;;3.57;100.00
43119;BME280;28729;49.838;8.650;2024-01-30T07:27:36;101136.63;;;3.58;100.00
43119;BME280;28729;49.838;8.650;2024-01-30T07:31:38;101141.38;;;3.64;100.00
43119;BME280;28729;49.838;8.650;2024-01-30T07:35:40;101135.44;;;3.69;100.00
43119;BME280;28729;49.838;8.650;2024-01-30T07:39:42;101140.00;;;3.77;100.00
43119;BME280;28729;49.838;8.650;2024-01-30T07:43:44;101134.69;;;3.83;100.00
43119;BME280;28729;49.838;8.650;2024-01-30T07:47:47;101144.75;;;3.91;100.00
43119;BME280;28729;49.838;8.650;2024-01-30T07:51:48;101144.88;;;3.98;100.00
43119;BME280;28729;49.838;8.650;2024-01-30T07:55:52;101162.78;;;4.00;100.00
43119;BME280;28729;49.838;8.650;2024-01-30T07:59:53;101158.69;;;4.04;100.00
43119;BME280;28729;49.838;8.650;2024-01-30T08:03:55;101163.28;;;4.12;100.00
43119;BME280;28729;49.838;8.650;2024-01-30T08:07:57;101165.78;;;4.22;100.00
43119;BME280;28729;49.838;8.650;2024-01-30T08:11:59;101163.72;;;4.32;100.00
43119;BME280;28729;49.838;8.650;2024-01-30T08:16:01;101172.41;;;4.36;100.00
43119;BME280;28729;49.838;8.650;2024-01-30T08:20:05;101173.44;;;4.34;100.00
43119;BME280;28729;49.838;8.650;2024-01-30T08:24:08;101178.69;;;4.44;100.00
43119;BME280;28729;49.838;8.650;2024-01-30T08:28:10;101175.88;;;4.61;100.00
43119;BME280;28729;49.838;8.650;2024-01-30T08:32:12;101174.78;;;4.78;100.00
43119;BME280;28729;49.838;8.650;2024-01-30T08:36:16;101176.75;;;4.92;100.00
43119;BME280;28729;49.838;8.650;2024-01-30T08:40:18;101170.84;;;5.12;100.00
43119;BME280;28729;49.838;8.650;2024-01-30T08:44:20;101163.47;;;5.35;100.00
43119;BME280;28729;49.838;8.650;2024-01-30T08:48:22;101165.56;;;5.56;100.00
43119;BME280;28729;49.838;8.650;2024-01-30T08:52:27;101169.94;;;5.80;100.00
43119;BME280;28729;49.838;8.650;2024-01-30T08:56:29;101168.75;;;5.98;100.00
43119;BME280;28729;49.838;8.650;2024-01-30T09:00:34;101165.88;;;6.14;100.00
43119;BME280;28729;49.838;8.650;2024-01-30T09:04:36;101174.75;;;6.31;100.00
43119;BME280;28729;49.838;8.650;2024-01-30T09:08:41;101164.66;;;6.46;100.00
43119;BME280;28729;49.838;8.650;2024-01-30T09:12:43;101165.13;;;6.50;100.00
43119;BME280;28729;49.838;8.650;2024-01-30T09:16:45;101178.72;;;6.58;100.00
43119;BME280;28729;49.838;8.650;2024-01-30T09:20:47;101185.78;;;6.67;100.00
43119;BME280;28729;49.838;8.650;2024-01-30T09:24:49;101174.72;;;6.75;100.00
43119;BME280;28729;49.838;8.650;2024-01-30T09:28:51;101183.31;;;6.87;100.00
43119;BME280;28729;49.838;8.650;2024-01-30T09:32:52;101196.09;;;7.01;100.00
43119;BME280;28729;49.838;8.650;2024-01-30T09:37:01;101193.53;;;7.15;100.00
43119;BME280;28729;49.838;8.650;2024-01-30T09:41:09;101187.78;;;7.31;100.00
43119;BME280;28729;49.838;8.650;2024-01-30T09:45:13;101186.09;;;7.51;100.00
43119;BME280;28729;49.838;8.650;2024-01-30T09:49:16;101180.53;;;7.66;100.00
43119;BME280;28729;49.838;8.650;2024-01-30T09:53:23;101182.41;;;7.87;100.00
43119;BME280;28729;49.838;8.650;2024-01-30T09:57:36;101193.94;;;8.04;99.62
43119;BME280;28729;49.838;8.650;2024-01-30T10:01:40;101188.66;;;8.31;99.67
43119;BME280;28729;49.838;8.650;2024-01-30T10:05:50;101185.84;;;8.52;97.97
43119;BME280;28729;49.838;8.650;2024-01-30T10:09:54;101186.31;;;8.62;96.57
43119;BME280;28729;49.838;8.650;2024-01-30T10:14:00;101183.69;;;8.89;96.37
43119;BME280;28729;49.838;8.650;2024-01-30T10:18:05;101185.84;;;9.00;93.76
43119;BME280;28729;49.838;8.650;2024-01-30T10:22:10;101182.28;;;9.06;92.90
43119;BME280;28729;49.838;8.650;2024-01-30T10:26:16;101181.91;;;9.16;92.02
43119;BME280;28729;49.838;8.650;2024-01-30T10:30:19;101182.34;;;9.26;93.00
43119;BME280;28729;49.838;8.650;2024-01-30T10:34:21;101182.16;;;9.41;92.37
43119;BME280;28729;49.838;8.650;2024-01-30T10:38:28;101171.16;;;9.48;90.72
43119;BME280;28729;49.838;8.650;2024-01-30T10:42:32;101166.72;;;9.53;90.58
43119;BME280;28729;49.838;8.650;2024-01-30T10:46:35;101170.56;;;9.66;90.72
43119;BME280;28729;49.838;8.650;2024-01-30T10:50:40;101164.41;;;9.64;89.63
43119;BME280;28729;49.838;8.650;2024-01-30T10:54:55;101167.19;;;9.77;90.66
43119;BME280;28729;49.838;8.650;2024-01-30T10:59:02;101161.47;;;9.92;90.41
43119;BME280;28729;49.838;8.650;2024-01-30T11:03:05;101154.25;;;9.97;88.24
43119;BME280;28729;49.838;8.650;2024-01-30T11:07:23;101163.56;;;10.03;87.69
43119;BME280;28729;49.838;8.650;2024-01-30T11:11:32;101162.09;;;10.00;88.02
43119;BME280;28729;49.838;8.650;2024-01-30T11:15:48;101165.69;;;10.01;86.62
43119;BME280;28729;49.838;8.650;2024-01-30T11:19:51;101166.09;;;10.24;86.90
43119;BME280;28729;49.838;8.650;2024-01-30T11:24:02;101172.19;;;10.53;83.66
43119;BME280;28729;49.838;8.650;2024-01-30T11:28:13;101176.56;;;10.81;81.36
43119;BME280;28729;49.838;8.650;2024-01-30T11:32:22;101172.69;;;10.88;79.56
43119;BME280;28729;49.838;8.650;2024-01-30T11:36:26;101161.00;;;10.93;79.66
43119;BME280;28729;49.838;8.650;2024-01-30T11:40:31;101156.97;;;10.95;78.45
43119;BME280;28729;49.838;8.650;2024-01-30T11:44:35;101148.63;;;11.09;77.29
43119;BME280;28729;49.838;8.650;2024-01-30T11:48:37;101139.47;;;11.15;76.03
43119;BME280;28729;49.838;8.650;2024-01-30T11:52:40;101136.84;;;11.27;75.98
43119;BME280;28729;49.838;8.650;2024-01-30T11:56:44;101132.28;;;11.39;76.32
43119;BME280;28729;49.838;8.650;2024-01-30T12:00:56;101125.94;;;11.38;75.07
43119;BME280;28729;49.838;8.650;2024-01-30T12:05:05;101120.16;;;11.47;74.14
43119;BME280;28729;49.838;8.650;2024-01-30T12:09:09;101101.59;;;11.60;74.45
43119;BME280;28729;49.838;8.650;2024-01-30T12:13:13;101117.94;;;11.87;74.69
43119;BME280;28729;49.838;8.650;2024-01-30T12:17:34;101114.88;;;11.95;73.42
43119;BME280;28729;49.838;8.650;2024-01-30T12:21:38;101114.06;;;12.13;73.63
43119;BME280;28729;49.838;8.650;2024-01-30T12:25:41;101112.84;;;12.27;71.55
43119;BME280;28729;49.838;8.650;2024-01-30T12:29:44;101113.00;;;12.51;71.04
43119;BME280;28729;49.838;8.650;2024-01-30T12:33:49;101121.06;;;12.71;69.14
43119;BME280;28729;49.838;8.650;2024-01-30T12:37:51;101113.25;;;12.68;68.47
43119;BME280;28729;49.838;8.650;2024-01-30T12:42:00;101113.00;;;12.69;68.06
43119;BME280;28729;49.838;8.650;2024-01-30T12:46:03;101110.22;;;12.69;67.29
43119;BME280;28729;49.838;8.650;2024-01-30T12:50:05;101106.94;;;12.61;66.39
43119;BME280;28729;49.838;8.650;2024-01-30T12:54:12;101111.63;;;12.60;66.19
43119;BME280;28729;49.838;8.650;2024-01-30T12:58:15;101107.31;;;12.46;65.88
43119;BME280;28729;49.838;8.650;2024-01-30T13:02:20;101105.63;;;12.45;66.71
43119;BME280;28729;49.838;8.650;2024-01-30T13:06:24;101110.16;;;12.39;66.78
43119;BME280;28729;49.838;8.650;2024-01-30T13:10:28;101105.09;;;12.36;66.78
43119;BME280;28729;49.838;8.650;2024-01-30T13:14:31;101102.97;;;12.38;66.56
43119;BME280;28729;49.838;8.650;2024-01-30T13:18:33;101109.94;;;12.41;66.64
43119;BME280;28729;49.838;8.650;2024-01-30T13:22:37;101105.19;;;12.29;66.06
43119;BME280;28729;49.838;8.650;2024-01-30T13:26:42;101105.72;;;12.38;66.70
43119;BME280;28729;49.838;8.650;2024-01-30T13:30:46;101102.16;;;12.31;66.71
43119;BME280;28729;49.838;8.650;2024-01-30T13:34:49;101100.13;;;12.26;66.89
43119;BME280;28729;49.838;8.650;2024-01-30T13:38:51;101089.81;;;12.15;67.02
43119;BME280;28729;49.838;8.650;2024-01-30T13:42:53;101081.06;;;12.18;67.59
43119;BME280;28729;49.838;8.650;2024-01-30T13:46:56;101087.88;;;12.16;67.44
43119;BME280;28729;49.838;8.650;2024-01-30T13:50:58;101079.00;;;12.14;67.73
43119;BME280;28729;49.838;8.650;2024-01-30T13:55:00;101076.47;;;12.12;68.02
43119;BME280;28729;49.838;8.650;2024-01-30T13:59:03;101081.97;;;12.12;67.87
43119;BME280;28729;49.838;8.650;2024-01-30T14:03:07;101081.91;;;12.00;68.24
43119;BME280;28729;49.838;8.650;2024-01-30T14:07:10;101079.84;;;11.96;68.46
43119;BME280;28729;49.838;8.650;2024-01-30T14:11:14;101075.69;;;11.80;68.53
43119;BME280;28729;49.838;8.650;2024-01-30T14:15:16;101083.59;;;11.76;69.41
43119;BME280;28729;49.838;8.650;2024-01-30T14:19:30;101086.19;;;11.71;70.06
43119;BME280;28729;49.838;8.650;2024-01-30T14:23:33;101090.69;;;11.66;70.11
43119;BME280;28729;49.838;8.650;2024-01-30T14:27:36;101090.47;;;11.67;70.75
43119;BME280;28729;49.838;8.650;2024-01-30T14:31:38;101086.63;;;11.68;71.07
43119;BME280;28729;49.838;8.650;2024-01-30T14:35:40;101102.41;;;11.61;71.11
43119;BME280;28729;49.838;8.650;2024-01-30T14:39:42;101102.63;;;11.59;71.48
43119;BME280;28729;49.838;8.650;2024-01-30T14:43:46;101110.97;;;11.53;71.80
43119;BME280;28729;49.838;8.650;2024-01-30T14:47:48;101115.25;;;11.49;72.03
43119;BME280;28729;49.838;8.650;2024-01-30T14:51:51;101115.91;;;11.44;72.29
43119;BME280;28729;49.838;8.650;2024-01-30T14:55:52;101110.28;;;11.32;73.00
43119;BME280;28729;49.838;8.650;2024-01-30T14:59:54;101105.47;;;11.21;73.93
43119;BME280;28729;49.838;8.650;2024-01-30T15:03:56;101097.47;;;11.13;74.49
43119;BME280;28729;49.838;8.650;2024-01-30T15:08:00;101095.59;;;11.07;75.00
43119;BME280;28729;49.838;8.650;2024-01-30T15:12:04;101107.28;;;11.02;75.80
43119;BME280;28729;49.838;8.650;2024-01-30T15:16:08;101099.06;;;10.95;76.15
43119;BME280;28729;49.838;8.650;2024-01-30T15:20:10;101102.03;;;10.94;76.71
43119;BME280;28729;49.838;8.650;2024-01-30T15:24:13;101113.09;;;10.87;77.23
43119;BME280;28729;49.838;8.650;2024-01-30T15:28:18;101109.09;;;10.83;77.97
43119;BME280;28729;49.838;8.650;2024-01-30T15:32:21;101113.78;;;10.83;78.47
43119;BME280;28729;49.838;8.650;2024-01-30T15:36:23;101116.72;;;10.81;78.87
43119;BME280;28729;49.838;8.650;2024-01-30T15:40:27;101114.41;;;10.78;79.58
43119;BME280;28729;49.838;8.650;2024-01-30T15:44:30;101119.06;;;10.84;79.67
43119;BME280;28729;49.838;8.650;2024-01-30T15:48:36;101120.72;;;10.85;79.77
43119;BME280;28729;49.838;8.650;2024-01-30T15:52:38;101135.16;;;10.87;80.31
43119;BME280;28729;49.838;8.650;2024-01-30T15:56:42;101128.81;;;10.87;80.42
43119;BME280;28729;49.838;8.650;2024-01-30T16:00:46;101130.47;;;10.88;80.76
43119;BME280;28729;49.838;8.650;2024-01-30T16:04:49;101138.94;;;10.93;80.63
43119;BME280;28729;49.838;8.650;2024-01-30T16:08:51;101144.47;;;10.93;80.81
43119;BME280;28729;49.838;8.650;2024-01-30T16:12:54;101142.56;;;10.93;81.28
43119;BME280;28729;49.838;8.650;2024-01-30T16:16:56;101138.72;;;10.94;81.33
43119;BME280;28729;49.838;8.650;2024-01-30T16:20:59;101137.66;;;10.95;81.65
43119;BME280;28729;49.838;8.650;2024-01-30T16:25:02;101141.06;;;10.98;82.24
43119;BME280;28729;49.838;8.650;2024-01-30T16:29:08;101148.25;;;10.99;82.45
43119;BME280;28729;49.838;8.650;2024-01-30T16:33:10;101148.47;;;10.97;82.92
43119;BME280;28729;49.838;8.650;2024-01-30T16:37:14;101157.63;;;10.98;83.41
43119;BME280;28729;49.838;8.650;2024-01-30T16:41:16;101155.25;;;10.94;83.83
43119;BME280;28729;49.838;8.650;2024-01-30T16:45:19;101162.28;;;10.90;84.47
43119;BME280;28729;49.838;8.650;2024-01-30T16:49:21;101166.13;;;10.89;84.32
43119;BME280;28729;49.838;8.650;2024-01-30T16:53:24;101161.66;;;10.88;84.68
43119;BME280;28729;49.838;8.650;2024-01-30T16:57:26;101167.81;;;10.90;85.28
43119;BME280;28729;49.838;8.650;2024-01-30T17:01:30;101172.69;;;10.88;85.33
43119;BME280;28729;49.838;8.650;2024-01-30T17:05:32;101172.09;;;10.86;85.95
43119;BME280;28729;49.838;8.650;2024-01-30T17:09:35;101178.66;;;10.85;86.23
43119;BME280;28729;49.838;8.650;2024-01-30T17:13:37;101192.22;;;10.87;86.18
43119;BME280;28729;49.838;8.650;2024-01-30T17:17:39;101194.56;;;10.83;86.95
43119;BME280;28729;49.838;8.650;2024-01-30T17:21:41;101193.94;;;10.81;87.78
43119;BME280;28729;49.838;8.650;2024-01-30T17:25:45;101198.63;;;10.81;88.29
43119;BME280;28729;49.838;8.650;2024-01-30T17:29:47;101205.59;;;10.83;88.27
43119;BME280;28729;49.838;8.650;2024-01-30T17:33:53;101210.47;;;10.81;88.72
43119;BME280;28729;49.838;8.650;2024-01-30T17:37:56;101210.91;;;10.78;89.04
43119;BME280;28729;49.838;8.650;2024-01-30T17:41:58;101224.72;;;10.71;90.02
43119;BME280;28729;49.838;8.650;2024-01-30T17:46:00;101235.97;;;10.70;90.51
43119;BME280;28729;49.838;8.650;2024-01-30T17:50:04;101237.03;;;10.69;90.65
43119;BME280;28729;49.838;8.650;2024-01-30T17:54:09;101241.28;;;10.71;90.47
43119;BME280;28729;49.838;8.650;2024-01-30T17:58:14;101247.00;;;10.70;90.62
43119;BME280;28729;49.838;8.650;2024-01-30T18:02:16;101250.19;;;10.67;90.89
43119;BME280;28729;49.838;8.650;2024-01-30T18:06:20;101258.88;;;10.64;91.18
43119;BME280;28729;49.838;8.650;2024-01-30T18:10:22;101267.59;;;10.61;91.84
43119;BME280;28729;49.838;8.650;2024-01-30T18:14:24;101267.16;;;10.57;92.85
43119;BME280;28729;49.838;8.650;2024-01-30T18:18:26;101266.75;;;10.54;93.41
43119;BME280;28729;49.838;8.650;2024-01-30T18:22:32;101269.94;;;10.51;93.68
43119;BME280;28729;49.838;8.650;2024-01-30T18:26:35;101285.63;;;10.50;94.05
43119;BME280;28729;49.838;8.650;2024-01-30T18:30:38;101288.16;;;10.52;94.56
43119;BME280;28729;49.838;8.650;2024-01-30T18:34:40;101294.94;;;10.56;94.28
43119;BME280;28729;49.838;8.650;2024-01-30T18:38:43;101290.91;;;10.58;94.48
43119;BME280;28729;49.838;8.650;2024-01-30T18:42:45;101286.69;;;10.62;94.20
43119;BME280;28729;49.838;8.650;2024-01-30T18:46:48;101293.03;;;10.63;94.83
43119;BME280;28729;49.838;8.650;2024-01-30T18:50:51;101299.81;;;10.67;94.83
43119;BME280;28729;49.838;8.650;2024-01-30T18:54:54;101292.19;;;10.62;95.56
43119;BME280;28729;49.838;8.650;2024-01-30T18:58:56;101296.84;;;10.62;96.20
43119;BME280;28729;49.838;8.650;2024-01-30T19:02:57;101301.50;;;10.68;96.17
43119;BME280;28729;49.838;8.650;2024-01-30T19:06:59;101312.13;;;10.71;95.84
43119;BME280;28729;49.838;8.650;2024-01-30T19:11:02;101308.72;;;10.69;96.78
43119;BME280;28729;49.838;8.650;2024-01-30T19:15:04;101307.03;;;10.68;97.21
43119;BME280;28729;49.838;8.650;2024-01-30T19:19:13;101310.19;;;10.71;97.20
43119;BME280;28729;49.838;8.650;2024-01-30T19:23:15;101322.72;;;10.74;97.39
43119;BME280;28729;49.838;8.650;2024-01-30T19:27:22;101321.22;;;10.71;98.54
43119;BME280;28729;49.838;8.650;2024-01-30T19:31:24;101326.94;;;10.70;99.73
43119;BME280;28729;49.838;8.650;2024-01-30T19:35:27;101323.75;;;10.73;99.10
43119;BME280;28729;49.838;8.650;2024-01-30T19:39:29;101327.34;;;10.73;99.76
43119;BME280;28729;49.838;8.650;2024-01-30T19:43:39;101331.81;;;10.75;100.00
43119;BME280;28729;49.838;8.650;2024-01-30T19:47:42;101333.31;;;10.77;100.00
43119;BME280;28729;49.838;8.650;2024-01-30T19:51:45;101343.06;;;10.80;100.00
43119;BME280;28729;49.838;8.650;2024-01-30T19:55:47;101346.44;;;10.82;100.00
43119;BME280;28729;49.838;8.650;2024-01-30T19:59:55;101340.50;;;10.78;100.00
43119;BME280;28729;49.838;8.650;2024-01-30T20:03:57;101344.75;;;10.81;100.00
43119;BME280;28729;49.838;8.650;2024-01-30T20:07:59;101334.56;;;10.81;100.00
43119;BME280;28729;49.838;8.650;2024-01-30T20:12:04;101338.41;;;10.80;100.00
43119;BME280;28729;49.838;8.650;2024-01-30T20:16:07;101349.44;;;10.80;100.00
43119;BME280;28729;49.838;8.650;2024-01-30T20:20:11;101347.94;;;10.84;100.00
43119;BME280;28729;49.838;8.650;2024-01-30T20:24:13;101346.25;;;10.83;100.00
43119;BME280;28729;49.838;8.650;2024-01-30T20:28:16;101354.72;;;10.82;100.00
43119;BME280;28729;49.838;8.650;2024-01-30T20:32:19;101359.19;;;10.83;100.00
43119;BME280;28729;49.838;8.650;2024-01-30T20:36:22;101363.00;;;10.82;100.00
43119;BME280;28729;49.838;8.650;2024-01-30T20:40:24;101363.63;;;10.84;100.00
43119;BME280;28729;49.838;8.650;2024-01-30T20:44:26;101354.09;;;10.86;100.00
43119;BME280;28729;49.838;8.650;2024-01-30T20:48:28;101351.94;;;10.88;100.00
43119;BME280;28729;49.838;8.650;2024-01-30T20:52:32;101357.03;;;10.91;100.00
43119;BME280;28729;49.838;8.650;2024-01-30T20:56:38;101337.53;;;10.93;100.00
43119;BME280;28729;49.838;8.650;2024-01-30T21:00:40;101340.91;;;10.95;100.00
43119;BME280;28729;49.838;8.650;2024-01-30T21:04:45;101328.63;;;10.98;100.00
43119;BME280;28729;49.838;8.650;2024-01-30T21:08:48;101330.50;;;10.97;100.00
43119;BME280;28729;49.838;8.650;2024-01-30T21:12:54;101326.06;;;10.96;100.00